Ryusyou — JD2018 — position and weather

sailwx.info

Track history (hours):
 
Tides and Currents Weather Stations Pressure Air Temp Water Temp Dewpoint Dewpoint Depression Visibility Wind Speed Wind Dir Waves Ship Positions

Ryusyou

Last reported at 2018-Feb-20 11:29 UTC. Time now 2018-Feb-20 11:31 UTC.
Position N 34°27' E 135°21'.

Length 55 m; draft 4 m.

Type: Cargo ship. MMSI: 431602277.

Date/timePositionNaut miles runAvg speedWind from/ knotsBaromVisibWave heightAir tempDewpointWater temp
2018-Feb-20 11:29N 34°27' E 135°21'0 0.3
2018-Feb-20 11:00N 34°28' E 135°21'5 9.6
2018-Feb-20 10:30N 34°30' E 135°16'510.9
2018-Feb-20 10:00N 34°32' E 135°10'612.2
2018-Feb-20 09:31N 34°35' E 135°04'612.0
2018-Feb-20 09:00N 34°36' E 134°57'612.7
2018-Feb-20 08:30N 34°33' E 134°49'611.3
2018-Feb-20 08:00N 34°31' E 134°43'611.1
2018-Feb-20 07:30N 34°29' E 134°37'711.0
2018-Feb-20 06:53N 34°26' E 134°29'26 1.4
2018-Feb-19 11:37N 34°26' E 133°58'412.6
2018-Feb-19 11:16N 34°27' E 134°03'912.0
2018-Feb-19 10:31N 34°24' E 134°14'0 9.2
2018-Feb-19 10:30N 34°24' E 134°14'711.5
2018-Feb-19 09:56N 34°22' E 134°21'811.5
2018-Feb-19 09:12N 34°18' E 134°30'211.3
2018-Feb-19 09:00N 34°17' E 134°33'611.2
2018-Feb-19 08:28N 34°14' E 134°39'8 0.8
2018-Feb-18 21:52N 34°07' E 134°34'2 0.1
2018-Feb-17 14:51N 34°07' E 134°36'2 6.0
2018-Feb-17 14:30N 34°07' E 134°38'511.2
2018-Feb-17 14:01N 34°12' E 134°39'510.4
2018-Feb-17 13:30N 34°17' E 134°38'510.6
2018-Feb-17 13:00N 34°22' E 134°37'510.6
2018-Feb-17 12:30N 34°27' E 134°36'510.6
2018-Feb-17 12:00N 34°33' E 134°37'510.6
2018-Feb-17 11:30N 34°38' E 134°37'510.6
2018-Feb-17 11:00N 34°43' E 134°37'4 0.9
2018-Feb-17 07:03N 34°47' E 134°37'0 0.0
2018-Feb-17 07:00N 34°47' E 134°37'0 0.0
2018-Feb-17 06:27N 34°47' E 134°37'0 0.0
2018-Feb-17 05:50N 34°47' E 134°37'0 0.0
2018-Feb-17 05:28N 34°47' E 134°37'0 0.0
2018-Feb-17 05:00N 34°47' E 134°37'0 0.0
2018-Feb-17 04:30N 34°47' E 134°37'0 0.2
2018-Feb-17 02:48N 34°47' E 134°38'3 7.8
2018-Feb-17 02:22N 34°44' E 134°35'511.4
2018-Feb-17 01:57N 34°42' E 134°30'2010.9
2018-Feb-17 00:06N 34°32' E 134°09'14 0.4
2018-Feb-15 07:23N 34°22' E 134°21'410.6
2018-Feb-15 07:00N 34°20' E 134°26'510.5
2018-Feb-15 06:30N 34°19' E 134°32'15 8.8
2018-Feb-15 04:50N 34°07' E 134°42'3 9.6
2018-Feb-15 04:29N 34°03' E 134°43'12 2.8
2018-Feb-15 00:18N 33°52' E 134°39'0 0.6
2018-Feb-14 23:59N 33°52' E 134°39'7 0.5
2018-Feb-14 10:03N 33°56' E 134°45'111.7
2018-Feb-14 10:00N 33°57' E 134°46'611.1
2018-Feb-14 09:30N 34°02' E 134°48'611.2
2018-Feb-14 09:00N 34°07' E 134°52'611.2
2018-Feb-14 08:30N 34°12' E 134°55'611.2
2018-Feb-14 08:00N 34°17' E 134°58'611.2
2018-Feb-14 07:30N 34°22' E 135°01'611.2
2018-Feb-14 07:00N 34°24' E 135°07'611.3
2018-Feb-14 06:30N 34°27' E 135°13'510.6
2018-Feb-14 06:00N 34°29' E 135°19'2 4.0
2018-Feb-14 05:30N 34°27' E 135°21'0 0.0
2018-Feb-14 04:57N 34°27' E 135°21'0 0.0
2018-Feb-14 04:30N 34°27' E 135°21'0 0.0
2018-Feb-14 04:00N 34°27' E 135°21'0 0.0
2018-Feb-14 03:30N 34°27' E 135°21'0 0.0
2018-Feb-14 02:57N 34°27' E 135°21'0 0.0
2018-Feb-14 02:30N 34°27' E 135°21'0 0.0
2018-Feb-14 01:57N 34°27' E 135°21'0 0.0
2018-Feb-14 01:30N 34°27' E 135°21'0 0.0
2018-Feb-14 01:00N 34°27' E 135°21'0 0.0
2018-Feb-14 00:24N 34°27' E 135°21'0 0.0
2018-Feb-13 23:57N 34°27' E 135°21'0 0.0
2018-Feb-13 23:30N 34°27' E 135°21'0 0.0
2018-Feb-13 22:57N 34°27' E 135°21'0 0.0
2018-Feb-13 22:27N 34°27' E 135°21'0 0.0
2018-Feb-13 21:57N 34°27' E 135°21'0 0.0
2018-Feb-13 21:30N 34°27' E 135°21'0 0.0
2018-Feb-13 20:57N 34°27' E 135°21'0 0.0
2018-Feb-13 20:27N 34°27' E 135°21'0 0.0
2018-Feb-13 19:57N 34°27' E 135°21'0 0.0
2018-Feb-13 19:21N 34°27' E 135°21'0 0.0
2018-Feb-13 19:00N 34°27' E 135°21'0 0.0
2018-Feb-13 18:27N 34°27' E 135°21'0 0.0
2018-Feb-13 17:57N 34°27' E 135°21'0 0.0
2018-Feb-13 17:27N 34°27' E 135°21'0 0.0
2018-Feb-13 16:57N 34°27' E 135°21'0 0.0
2018-Feb-13 16:27N 34°27' E 135°21'0 0.0
2018-Feb-13 15:57N 34°27' E 135°21'0 0.0
2018-Feb-13 15:30N 34°27' E 135°21'0 0.0
2018-Feb-13 14:57N 34°27' E 135°21'0 0.0
2018-Feb-13 14:27N 34°27' E 135°21'0 0.0
2018-Feb-13 14:00N 34°27' E 135°21'0 0.0
2018-Feb-13 13:27N 34°27' E 135°21'0 0.0
2018-Feb-13 12:57N 34°27' E 135°21'0 0.0
2018-Feb-13 12:27N 34°27' E 135°21'0 0.0
2018-Feb-13 11:57N 34°27' E 135°21'0 0.0
2018-Feb-13 11:27N 34°27' E 135°21'0 0.0
2018-Feb-13 11:00N 34°27' E 135°21'0 0.0
2018-Feb-13 10:30N 34°27' E 135°21'0 0.0
2018-Feb-13 10:00N 34°27' E 135°21'0 0.0
2018-Feb-13 09:21N 34°27' E 135°21'0 0.0
2018-Feb-13 09:00N 34°27' E 135°21'0 0.0
2018-Feb-13 08:30N 34°27' E 135°21'0 0.0
2018-Feb-13 07:57N 34°27' E 135°21'1 2.5
2018-Feb-13 07:30N 34°28' E 135°21'5 9.9
2018-Feb-13 07:00N 34°28' E 135°15'510.3
2018-Feb-13 06:30N 34°25' E 135°10'510.0
2018-Feb-13 06:00N 34°21' E 135°05'5 9.8
2018-Feb-13 05:30N 34°18' E 135°01'4 8.9
2018-Feb-13 05:00N 34°14' E 134°58'510.1
2018-Feb-13 04:30N 34°10' E 134°55'510.1
2018-Feb-13 04:00N 34°05' E 134°52'11 1.9
2018-Feb-12 22:01N 33°57' E 134°44'311.4
2018-Feb-12 21:46N 33°59' E 134°42'311.2
2018-Feb-12 21:30N 34°02' E 134°41'510.7
2018-Feb-12 21:00N 34°06' E 134°37'  
Track history (hours):
 
Tides and Currents Weather Stations Pressure Air Temp Water Temp Dewpoint Dewpoint Depression Visibility Wind Speed Wind Dir Waves Ship Positions

Ryusyou

Last reported at 2018-Feb-20 11:29 UTC. Time now 2018-Feb-20 11:31 UTC.
Position N 34°27' E 135°21'.

Length 55 m; draft 4 m.

Type: Cargo ship. MMSI: 431602277.

Date/timePositionNaut miles runAvg speedWind from/ knotsBaromVisibWave heightAir tempDewpointWater temp
2018-Feb-20 11:29N 34°27' E 135°21'0 0.3
2018-Feb-20 11:00N 34°28' E 135°21'5 9.6
2018-Feb-20 10:30N 34°30' E 135°16'510.9
2018-Feb-20 10:00N 34°32' E 135°10'612.2
2018-Feb-20 09:31N 34°35' E 135°04'612.0
2018-Feb-20 09:00N 34°36' E 134°57'612.7
2018-Feb-20 08:30N 34°33' E 134°49'611.3
2018-Feb-20 08:00N 34°31' E 134°43'611.1
2018-Feb-20 07:30N 34°29' E 134°37'711.0
2018-Feb-20 06:53N 34°26' E 134°29'26 1.4
2018-Feb-19 11:37N 34°26' E 133°58'412.6
2018-Feb-19 11:16N 34°27' E 134°03'912.0
2018-Feb-19 10:31N 34°24' E 134°14'0 9.2
2018-Feb-19 10:30N 34°24' E 134°14'711.5
2018-Feb-19 09:56N 34°22' E 134°21'811.5
2018-Feb-19 09:12N 34°18' E 134°30'211.3
2018-Feb-19 09:00N 34°17' E 134°33'611.2
2018-Feb-19 08:28N 34°14' E 134°39'8 0.8
2018-Feb-18 21:52N 34°07' E 134°34'2 0.1
2018-Feb-17 14:51N 34°07' E 134°36'2 6.0
2018-Feb-17 14:30N 34°07' E 134°38'511.2
2018-Feb-17 14:01N 34°12' E 134°39'510.4
2018-Feb-17 13:30N 34°17' E 134°38'510.6
2018-Feb-17 13:00N 34°22' E 134°37'510.6
2018-Feb-17 12:30N 34°27' E 134°36'510.6
2018-Feb-17 12:00N 34°33' E 134°37'510.6
2018-Feb-17 11:30N 34°38' E 134°37'510.6
2018-Feb-17 11:00N 34°43' E 134°37'4 0.9
2018-Feb-17 07:03N 34°47' E 134°37'0 0.0
2018-Feb-17 07:00N 34°47' E 134°37'0 0.0
2018-Feb-17 06:27N 34°47' E 134°37'0 0.0
2018-Feb-17 05:50N 34°47' E 134°37'0 0.0
2018-Feb-17 05:28N 34°47' E 134°37'0 0.0
2018-Feb-17 05:00N 34°47' E 134°37'0 0.0
2018-Feb-17 04:30N 34°47' E 134°37'0 0.2
2018-Feb-17 02:48N 34°47' E 134°38'3 7.8
2018-Feb-17 02:22N 34°44' E 134°35'511.4
2018-Feb-17 01:57N 34°42' E 134°30'2010.9
2018-Feb-17 00:06N 34°32' E 134°09'14 0.4
2018-Feb-15 07:23N 34°22' E 134°21'410.6
2018-Feb-15 07:00N 34°20' E 134°26'510.5
2018-Feb-15 06:30N 34°19' E 134°32'15 8.8
2018-Feb-15 04:50N 34°07' E 134°42'3 9.6
2018-Feb-15 04:29N 34°03' E 134°43'12 2.8
2018-Feb-15 00:18N 33°52' E 134°39'0 0.6
2018-Feb-14 23:59N 33°52' E 134°39'7 0.5
2018-Feb-14 10:03N 33°56' E 134°45'111.7
2018-Feb-14 10:00N 33°57' E 134°46'611.1
2018-Feb-14 09:30N 34°02' E 134°48'611.2
2018-Feb-14 09:00N 34°07' E 134°52'611.2
2018-Feb-14 08:30N 34°12' E 134°55'611.2
2018-Feb-14 08:00N 34°17' E 134°58'611.2
2018-Feb-14 07:30N 34°22' E 135°01'611.2
2018-Feb-14 07:00N 34°24' E 135°07'611.3
2018-Feb-14 06:30N 34°27' E 135°13'510.6
2018-Feb-14 06:00N 34°29' E 135°19'2 4.0
2018-Feb-14 05:30N 34°27' E 135°21'0 0.0
2018-Feb-14 04:57N 34°27' E 135°21'0 0.0
2018-Feb-14 04:30N 34°27' E 135°21'0 0.0
2018-Feb-14 04:00N 34°27' E 135°21'0 0.0
2018-Feb-14 03:30N 34°27' E 135°21'0 0.0
2018-Feb-14 02:57N 34°27' E 135°21'0 0.0
2018-Feb-14 02:30N 34°27' E 135°21'0 0.0
2018-Feb-14 01:57N 34°27' E 135°21'0 0.0
2018-Feb-14 01:30N 34°27' E 135°21'0 0.0
2018-Feb-14 01:00N 34°27' E 135°21'0 0.0
2018-Feb-14 00:24N 34°27' E 135°21'0 0.0
2018-Feb-13 23:57N 34°27' E 135°21'0 0.0
2018-Feb-13 23:30N 34°27' E 135°21'0 0.0
2018-Feb-13 22:57N 34°27' E 135°21'0 0.0
2018-Feb-13 22:27N 34°27' E 135°21'0 0.0
2018-Feb-13 21:57N 34°27' E 135°21'0 0.0
2018-Feb-13 21:30N 34°27' E 135°21'0 0.0
2018-Feb-13 20:57N 34°27' E 135°21'0 0.0
2018-Feb-13 20:27N 34°27' E 135°21'0 0.0
2018-Feb-13 19:57N 34°27' E 135°21'0 0.0
2018-Feb-13 19:21N 34°27' E 135°21'0 0.0
2018-Feb-13 19:00N 34°27' E 135°21'0 0.0
2018-Feb-13 18:27N 34°27' E 135°21'0 0.0
2018-Feb-13 17:57N 34°27' E 135°21'0 0.0
2018-Feb-13 17:27N 34°27' E 135°21'0 0.0
2018-Feb-13 16:57N 34°27' E 135°21'0 0.0
2018-Feb-13 16:27N 34°27' E 135°21'0 0.0
2018-Feb-13 15:57N 34°27' E 135°21'0 0.0
2018-Feb-13 15:30N 34°27' E 135°21'0 0.0
2018-Feb-13 14:57N 34°27' E 135°21'0 0.0
2018-Feb-13 14:27N 34°27' E 135°21'0 0.0
2018-Feb-13 14:00N 34°27' E 135°21'0 0.0
2018-Feb-13 13:27N 34°27' E 135°21'0 0.0
2018-Feb-13 12:57N 34°27' E 135°21'0 0.0
2018-Feb-13 12:27N 34°27' E 135°21'0 0.0
2018-Feb-13 11:57N 34°27' E 135°21'0 0.0
2018-Feb-13 11:27N 34°27' E 135°21'0 0.0
2018-Feb-13 11:00N 34°27' E 135°21'0 0.0
2018-Feb-13 10:30N 34°27' E 135°21'0 0.0
2018-Feb-13 10:00N 34°27' E 135°21'0 0.0
2018-Feb-13 09:21N 34°27' E 135°21'0 0.0
2018-Feb-13 09:00N 34°27' E 135°21'0 0.0
2018-Feb-13 08:30N 34°27' E 135°21'0 0.0
2018-Feb-13 07:57N 34°27' E 135°21'1 2.5
2018-Feb-13 07:30N 34°28' E 135°21'5 9.9
2018-Feb-13 07:00N 34°28' E 135°15'510.3
2018-Feb-13 06:30N 34°25' E 135°10'510.0
2018-Feb-13 06:00N 34°21' E 135°05'5 9.8
2018-Feb-13 05:30N 34°18' E 135°01'4 8.9
2018-Feb-13 05:00N 34°14' E 134°58'510.1
2018-Feb-13 04:30N 34°10' E 134°55'510.1
2018-Feb-13 04:00N 34°05' E 134°52'11 1.9
2018-Feb-12 22:01N 33°57' E 134°44'311.4
2018-Feb-12 21:46N 33°59' E 134°42'311.2
2018-Feb-12 21:30N 34°02' E 134°41'510.7
2018-Feb-12 21:00N 34°06' E 134°37'  

Dump ship's entire track history